sensor_id;sensor_type;location;lat;lon;timestamp;P1;durP1;ratioP1;P2;durP2;ratioP2
48623;SDS011;75490;45.802;16.114;2024-01-25T00:01:17;35.72;;;20.75;;
48623;SDS011;75490;45.802;16.114;2024-01-25T00:03:44;38.70;;;21.38;;
48623;SDS011;75490;45.802;16.114;2024-01-25T00:06:10;36.70;;;22.10;;
48623;SDS011;75490;45.802;16.114;2024-01-25T00:08:37;34.20;;;20.80;;
48623;SDS011;75490;45.802;16.114;2024-01-25T00:11:04;32.60;;;20.83;;
48623;SDS011;75490;45.802;16.114;2024-01-25T00:13:31;37.47;;;21.30;;
48623;SDS011;75490;45.802;16.114;2024-01-25T00:15:58;40.70;;;22.05;;
48623;SDS011;75490;45.802;16.114;2024-01-25T00:18:25;36.13;;;20.65;;
48623;SDS011;75490;45.802;16.114;2024-01-25T00:20:51;34.13;;;21.35;;
48623;SDS011;75490;45.802;16.114;2024-01-25T00:23:18;39.08;;;22.27;;
48623;SDS011;75490;45.802;16.114;2024-01-25T00:25:45;40.30;;;22.45;;
48623;SDS011;75490;45.802;16.114;2024-01-25T00:28:12;40.53;;;22.92;;
48623;SDS011;75490;45.802;16.114;2024-01-25T00:30:39;36.92;;;22.35;;
48623;SDS011;75490;45.802;16.114;2024-01-25T00:33:06;34.97;;;20.30;;
48623;SDS011;75490;45.802;16.114;2024-01-25T00:35:33;35.72;;;21.38;;
48623;SDS011;75490;45.802;16.114;2024-01-25T00:38:00;33.55;;;21.65;;
48623;SDS011;75490;45.802;16.114;2024-01-25T00:40:28;34.50;;;20.83;;
48623;SDS011;75490;45.802;16.114;2024-01-25T00:42:55;35.05;;;21.73;;
48623;SDS011;75490;45.802;16.114;2024-01-25T00:45:23;42.35;;;22.85;;
48623;SDS011;75490;45.802;16.114;2024-01-25T00:47:50;35.80;;;21.00;;
48623;SDS011;75490;45.802;16.114;2024-01-25T00:50:17;44.88;;;23.50;;
48623;SDS011;75490;45.802;16.114;2024-01-25T00:52:47;41.72;;;23.17;;
48623;SDS011;75490;45.802;16.114;2024-01-25T00:55:16;39.72;;;23.42;;
48623;SDS011;75490;45.802;16.114;2024-01-25T00:57:44;40.05;;;22.92;;
48623;SDS011;75490;45.802;16.114;2024-01-25T01:00:11;41.03;;;24.17;;
48623;SDS011;75490;45.802;16.114;2024-01-25T01:02:39;41.80;;;24.27;;
48623;SDS011;75490;45.802;16.114;2024-01-25T01:05:09;38.13;;;23.15;;
48623;SDS011;75490;45.802;16.114;2024-01-25T01:07:36;41.30;;;25.80;;
48623;SDS011;75490;45.802;16.114;2024-01-25T01:10:03;39.70;;;23.10;;
48623;SDS011;75490;45.802;16.114;2024-01-25T01:12:31;46.35;;;26.35;;
48623;SDS011;75490;45.802;16.114;2024-01-25T01:14:58;47.78;;;26.73;;
48623;SDS011;75490;45.802;16.114;2024-01-25T01:17:25;42.95;;;25.50;;
48623;SDS011;75490;45.802;16.114;2024-01-25T01:19:52;39.15;;;24.13;;
48623;SDS011;75490;45.802;16.114;2024-01-25T01:22:19;41.30;;;24.15;;
48623;SDS011;75490;45.802;16.114;2024-01-25T01:24:46;38.53;;;23.92;;
48623;SDS011;75490;45.802;16.114;2024-01-25T01:27:13;44.20;;;25.50;;
48623;SDS011;75490;45.802;16.114;2024-01-25T01:29:39;43.75;;;25.15;;
48623;SDS011;75490;45.802;16.114;2024-01-25T01:32:07;45.30;;;26.10;;
48623;SDS011;75490;45.802;16.114;2024-01-25T01:34:34;41.70;;;23.85;;
48623;SDS011;75490;45.802;16.114;2024-01-25T01:37:01;40.47;;;24.70;;
48623;SDS011;75490;45.802;16.114;2024-01-25T01:39:28;42.70;;;25.17;;
48623;SDS011;75490;45.802;16.114;2024-01-25T01:41:54;46.13;;;25.77;;
48623;SDS011;75490;45.802;16.114;2024-01-25T01:44:21;44.83;;;26.15;;
48623;SDS011;75490;45.802;16.114;2024-01-25T01:46:48;45.92;;;26.55;;
48623;SDS011;75490;45.802;16.114;2024-01-25T01:49:16;46.38;;;26.38;;
48623;SDS011;75490;45.802;16.114;2024-01-25T01:51:43;46.00;;;25.50;;
48623;SDS011;75490;45.802;16.114;2024-01-25T01:54:10;42.75;;;25.48;;
48623;SDS011;75490;45.802;16.114;2024-01-25T01:56:37;45.05;;;26.98;;
48623;SDS011;75490;45.802;16.114;2024-01-25T01:59:08;39.97;;;24.23;;
48623;SDS011;75490;45.802;16.114;2024-01-25T02:01:37;44.42;;;25.52;;
48623;SDS011;75490;45.802;16.114;2024-01-25T02:04:04;42.55;;;24.75;;
48623;SDS011;75490;45.802;16.114;2024-01-25T02:06:31;44.97;;;25.33;;
48623;SDS011;75490;45.802;16.114;2024-01-25T02:08:59;45.45;;;27.13;;
48623;SDS011;75490;45.802;16.114;2024-01-25T02:11:26;42.63;;;27.42;;
48623;SDS011;75490;45.802;16.114;2024-01-25T02:13:53;38.53;;;23.38;;
48623;SDS011;75490;45.802;16.114;2024-01-25T02:16:20;38.45;;;22.70;;
48623;SDS011;75490;45.802;16.114;2024-01-25T02:18:47;35.60;;;22.40;;
48623;SDS011;75490;45.802;16.114;2024-01-25T02:21:14;42.08;;;24.08;;
48623;SDS011;75490;45.802;16.114;2024-01-25T02:23:41;42.10;;;24.85;;
48623;SDS011;75490;45.802;16.114;2024-01-25T02:26:07;43.90;;;25.05;;
48623;SDS011;75490;45.802;16.114;2024-01-25T02:28:34;46.55;;;24.50;;
48623;SDS011;75490;45.802;16.114;2024-01-25T02:31:01;46.65;;;25.42;;
48623;SDS011;75490;45.802;16.114;2024-01-25T02:33:29;46.60;;;28.30;;
48623;SDS011;75490;45.802;16.114;2024-01-25T02:35:56;52.33;;;27.70;;
48623;SDS011;75490;45.802;16.114;2024-01-25T02:38:23;40.03;;;24.45;;
48623;SDS011;75490;45.802;16.114;2024-01-25T02:40:50;38.85;;;22.33;;
48623;SDS011;75490;45.802;16.114;2024-01-25T02:43:17;42.25;;;25.20;;
48623;SDS011;75490;45.802;16.114;2024-01-25T02:45:45;37.92;;;23.05;;
48623;SDS011;75490;45.802;16.114;2024-01-25T02:48:12;40.13;;;23.33;;
48623;SDS011;75490;45.802;16.114;2024-01-25T02:50:39;39.60;;;22.33;;
48623;SDS011;75490;45.802;16.114;2024-01-25T02:53:06;39.80;;;23.02;;
48623;SDS011;75490;45.802;16.114;2024-01-25T02:55:32;45.17;;;25.13;;
48623;SDS011;75490;45.802;16.114;2024-01-25T02:57:59;39.20;;;24.42;;
48623;SDS011;75490;45.802;16.114;2024-01-25T03:00:26;40.60;;;22.80;;
48623;SDS011;75490;45.802;16.114;2024-01-25T03:02:53;40.22;;;23.13;;
48623;SDS011;75490;45.802;16.114;2024-01-25T03:05:19;39.00;;;23.48;;
48623;SDS011;75490;45.802;16.114;2024-01-25T03:07:46;44.50;;;24.88;;
48623;SDS011;75490;45.802;16.114;2024-01-25T03:10:13;49.05;;;26.15;;
48623;SDS011;75490;45.802;16.114;2024-01-25T03:12:40;42.08;;;25.60;;
48623;SDS011;75490;45.802;16.114;2024-01-25T03:15:07;41.42;;;24.45;;
48623;SDS011;75490;45.802;16.114;2024-01-25T03:17:34;42.17;;;25.60;;
48623;SDS011;75490;45.802;16.114;2024-01-25T03:20:01;42.70;;;24.23;;
48623;SDS011;75490;45.802;16.114;2024-01-25T03:22:28;43.95;;;26.23;;
48623;SDS011;75490;45.802;16.114;2024-01-25T03:24:55;45.50;;;26.10;;
48623;SDS011;75490;45.802;16.114;2024-01-25T03:27:22;41.78;;;26.25;;
48623;SDS011;75490;45.802;16.114;2024-01-25T03:29:48;46.83;;;26.95;;
48623;SDS011;75490;45.802;16.114;2024-01-25T03:32:15;43.70;;;27.58;;
48623;SDS011;75490;45.802;16.114;2024-01-25T03:34:42;46.75;;;26.77;;
48623;SDS011;75490;45.802;16.114;2024-01-25T03:37:09;46.28;;;27.10;;
48623;SDS011;75490;45.802;16.114;2024-01-25T03:39:35;46.22;;;27.75;;
48623;SDS011;75490;45.802;16.114;2024-01-25T03:42:02;44.08;;;27.42;;
48623;SDS011;75490;45.802;16.114;2024-01-25T03:44:29;49.42;;;27.85;;
48623;SDS011;75490;45.802;16.114;2024-01-25T03:46:56;54.15;;;30.35;;
48623;SDS011;75490;45.802;16.114;2024-01-25T03:49:23;50.13;;;29.65;;
48623;SDS011;75490;45.802;16.114;2024-01-25T03:51:49;51.83;;;28.83;;
48623;SDS011;75490;45.802;16.114;2024-01-25T03:54:16;51.08;;;31.48;;
48623;SDS011;75490;45.802;16.114;2024-01-25T03:56:43;56.90;;;33.35;;
48623;SDS011;75490;45.802;16.114;2024-01-25T03:59:10;49.88;;;31.33;;
48623;SDS011;75490;45.802;16.114;2024-01-25T04:01:43;53.33;;;32.50;;
48623;SDS011;75490;45.802;16.114;2024-01-25T04:04:10;57.22;;;33.33;;
48623;SDS011;75490;45.802;16.114;2024-01-25T04:06:38;55.35;;;33.70;;
48623;SDS011;75490;45.802;16.114;2024-01-25T04:09:08;53.75;;;33.05;;
48623;SDS011;75490;45.802;16.114;2024-01-25T04:11:38;48.22;;;29.90;;
48623;SDS011;75490;45.802;16.114;2024-01-25T04:14:06;52.33;;;31.38;;
48623;SDS011;75490;45.802;16.114;2024-01-25T04:16:33;54.05;;;32.05;;
48623;SDS011;75490;45.802;16.114;2024-01-25T04:19:00;57.95;;;30.70;;
48623;SDS011;75490;45.802;16.114;2024-01-25T04:21:27;53.42;;;32.42;;
48623;SDS011;75490;45.802;16.114;2024-01-25T04:23:54;59.92;;;33.83;;
48623;SDS011;75490;45.802;16.114;2024-01-25T04:26:21;55.20;;;32.78;;
48623;SDS011;75490;45.802;16.114;2024-01-25T04:28:48;53.40;;;32.00;;
48623;SDS011;75490;45.802;16.114;2024-01-25T04:31:15;51.22;;;32.17;;
48623;SDS011;75490;45.802;16.114;2024-01-25T04:33:42;59.40;;;32.47;;
48623;SDS011;75490;45.802;16.114;2024-01-25T04:36:10;57.47;;;32.92;;
48623;SDS011;75490;45.802;16.114;2024-01-25T04:38:37;49.78;;;28.90;;
48623;SDS011;75490;45.802;16.114;2024-01-25T04:41:05;55.35;;;32.50;;
48623;SDS011;75490;45.802;16.114;2024-01-25T04:43:35;58.97;;;35.55;;
48623;SDS011;75490;45.802;16.114;2024-01-25T04:46:05;59.95;;;33.13;;
48623;SDS011;75490;45.802;16.114;2024-01-25T04:48:32;61.75;;;33.50;;
48623;SDS011;75490;45.802;16.114;2024-01-25T04:50:59;50.45;;;29.67;;
48623;SDS011;75490;45.802;16.114;2024-01-25T04:53:25;46.10;;;28.95;;
48623;SDS011;75490;45.802;16.114;2024-01-25T04:55:54;49.15;;;29.30;;
48623;SDS011;75490;45.802;16.114;2024-01-25T04:58:21;50.35;;;28.75;;
48623;SDS011;75490;45.802;16.114;2024-01-25T05:00:48;52.55;;;28.92;;
48623;SDS011;75490;45.802;16.114;2024-01-25T05:03:16;47.03;;;27.30;;
48623;SDS011;75490;45.802;16.114;2024-01-25T05:05:43;46.28;;;28.13;;
48623;SDS011;75490;45.802;16.114;2024-01-25T05:08:10;51.33;;;29.23;;
48623;SDS011;75490;45.802;16.114;2024-01-25T05:10:37;49.28;;;27.67;;
48623;SDS011;75490;45.802;16.114;2024-01-25T05:13:03;51.47;;;30.42;;
48623;SDS011;75490;45.802;16.114;2024-01-25T05:15:30;49.53;;;28.63;;
48623;SDS011;75490;45.802;16.114;2024-01-25T05:17:57;47.67;;;26.73;;
48623;SDS011;75490;45.802;16.114;2024-01-25T05:20:24;44.10;;;26.00;;
48623;SDS011;75490;45.802;16.114;2024-01-25T05:22:58;83.60;;;43.78;;
48623;SDS011;75490;45.802;16.114;2024-01-25T05:25:26;64.40;;;36.35;;
48623;SDS011;75490;45.802;16.114;2024-01-25T05:28:01;98.65;;;52.85;;
48623;SDS011;75490;45.802;16.114;2024-01-25T05:30:27;56.72;;;33.50;;
48623;SDS011;75490;45.802;16.114;2024-01-25T05:32:54;49.63;;;29.52;;
48623;SDS011;75490;45.802;16.114;2024-01-25T05:35:22;55.42;;;32.58;;
48623;SDS011;75490;45.802;16.114;2024-01-25T05:37:50;54.60;;;30.88;;
48623;SDS011;75490;45.802;16.114;2024-01-25T05:40:17;49.95;;;29.83;;
48623;SDS011;75490;45.802;16.114;2024-01-25T05:42:44;53.05;;;30.33;;
48623;SDS011;75490;45.802;16.114;2024-01-25T05:45:11;52.33;;;31.30;;
48623;SDS011;75490;45.802;16.114;2024-01-25T05:47:39;58.10;;;32.53;;
48623;SDS011;75490;45.802;16.114;2024-01-25T05:50:07;56.40;;;33.95;;
48623;SDS011;75490;45.802;16.114;2024-01-25T05:52:35;68.72;;;38.20;;
48623;SDS011;75490;45.802;16.114;2024-01-25T05:55:04;68.88;;;39.30;;
48623;SDS011;75490;45.802;16.114;2024-01-25T05:57:32;55.92;;;34.33;;
48623;SDS011;75490;45.802;16.114;2024-01-25T06:00:00;83.75;;;45.30;;
48623;SDS011;75490;45.802;16.114;2024-01-25T06:02:27;65.07;;;39.30;;
48623;SDS011;75490;45.802;16.114;2024-01-25T06:04:53;60.55;;;35.30;;
48623;SDS011;75490;45.802;16.114;2024-01-25T06:07:20;55.63;;;33.03;;
48623;SDS011;75490;45.802;16.114;2024-01-25T06:09:47;49.83;;;29.95;;
48623;SDS011;75490;45.802;16.114;2024-01-25T06:12:14;56.03;;;31.90;;
48623;SDS011;75490;45.802;16.114;2024-01-25T06:14:41;47.38;;;30.45;;
48623;SDS011;75490;45.802;16.114;2024-01-25T06:17:07;51.47;;;30.15;;
48623;SDS011;75490;45.802;16.114;2024-01-25T06:19:34;45.92;;;28.27;;
48623;SDS011;75490;45.802;16.114;2024-01-25T06:22:01;59.78;;;33.60;;
48623;SDS011;75490;45.802;16.114;2024-01-25T06:24:29;54.97;;;30.80;;
48623;SDS011;75490;45.802;16.114;2024-01-25T06:26:59;51.15;;;29.85;;
48623;SDS011;75490;45.802;16.114;2024-01-25T06:29:25;53.38;;;31.83;;
48623;SDS011;75490;45.802;16.114;2024-01-25T06:31:52;53.47;;;32.15;;
48623;SDS011;75490;45.802;16.114;2024-01-25T06:34:19;49.97;;;29.58;;
48623;SDS011;75490;45.802;16.114;2024-01-25T06:36:46;52.83;;;31.00;;
48623;SDS011;75490;45.802;16.114;2024-01-25T06:39:13;52.05;;;29.65;;
48623;SDS011;75490;45.802;16.114;2024-01-25T06:41:40;57.88;;;32.47;;
48623;SDS011;75490;45.802;16.114;2024-01-25T06:44:06;52.70;;;29.88;;
48623;SDS011;75490;45.802;16.114;2024-01-25T06:46:33;57.90;;;34.15;;
48623;SDS011;75490;45.802;16.114;2024-01-25T06:49:00;56.63;;;31.58;;
48623;SDS011;75490;45.802;16.114;2024-01-25T06:51:27;59.10;;;32.78;;
48623;SDS011;75490;45.802;16.114;2024-01-25T06:53:54;57.42;;;32.60;;
48623;SDS011;75490;45.802;16.114;2024-01-25T06:56:20;58.92;;;34.30;;
48623;SDS011;75490;45.802;16.114;2024-01-25T06:58:47;66.88;;;36.28;;
48623;SDS011;75490;45.802;16.114;2024-01-25T07:01:19;59.25;;;32.42;;
48623;SDS011;75490;45.802;16.114;2024-01-25T07:03:47;57.22;;;34.05;;
48623;SDS011;75490;45.802;16.114;2024-01-25T07:06:14;54.83;;;33.90;;
48623;SDS011;75490;45.802;16.114;2024-01-25T07:08:40;65.22;;;35.92;;
48623;SDS011;75490;45.802;16.114;2024-01-25T07:11:07;64.18;;;36.80;;
48623;SDS011;75490;45.802;16.114;2024-01-25T07:13:34;67.43;;;39.90;;
48623;SDS011;75490;45.802;16.114;2024-01-25T07:16:02;81.05;;;42.95;;
48623;SDS011;75490;45.802;16.114;2024-01-25T07:18:30;78.40;;;40.47;;
48623;SDS011;75490;45.802;16.114;2024-01-25T07:20:57;59.03;;;34.40;;
48623;SDS011;75490;45.802;16.114;2024-01-25T07:23:24;66.68;;;35.60;;
48623;SDS011;75490;45.802;16.114;2024-01-25T07:25:53;62.47;;;36.17;;
48623;SDS011;75490;45.802;16.114;2024-01-25T07:28:20;57.90;;;35.20;;
48623;SDS011;75490;45.802;16.114;2024-01-25T07:30:47;64.20;;;37.00;;
48623;SDS011;75490;45.802;16.114;2024-01-25T07:33:14;59.38;;;36.92;;
48623;SDS011;75490;45.802;16.114;2024-01-25T07:35:41;59.55;;;34.08;;
48623;SDS011;75490;45.802;16.114;2024-01-25T07:38:12;52.28;;;32.25;;
48623;SDS011;75490;45.802;16.114;2024-01-25T07:40:38;52.88;;;32.58;;
48623;SDS011;75490;45.802;16.114;2024-01-25T07:43:06;59.90;;;34.83;;
48623;SDS011;75490;45.802;16.114;2024-01-25T07:45:33;59.97;;;35.38;;
48623;SDS011;75490;45.802;16.114;2024-01-25T07:47:59;54.28;;;32.35;;
48623;SDS011;75490;45.802;16.114;2024-01-25T07:50:27;55.78;;;32.35;;
48623;SDS011;75490;45.802;16.114;2024-01-25T07:52:54;59.78;;;33.70;;
48623;SDS011;75490;45.802;16.114;2024-01-25T07:55:21;52.28;;;32.28;;
48623;SDS011;75490;45.802;16.114;2024-01-25T07:57:48;44.05;;;29.77;;
48623;SDS011;75490;45.802;16.114;2024-01-25T08:00:15;54.22;;;33.17;;
48623;SDS011;75490;45.802;16.114;2024-01-25T08:02:42;53.08;;;34.60;;
48623;SDS011;75490;45.802;16.114;2024-01-25T08:05:11;58.47;;;35.65;;
48623;SDS011;75490;45.802;16.114;2024-01-25T08:07:38;54.17;;;33.97;;
48623;SDS011;75490;45.802;16.114;2024-01-25T08:10:05;53.05;;;33.17;;
48623;SDS011;75490;45.802;16.114;2024-01-25T08:12:32;59.00;;;34.35;;
48623;SDS011;75490;45.802;16.114;2024-01-25T08:14:59;60.05;;;34.67;;
48623;SDS011;75490;45.802;16.114;2024-01-25T08:17:26;66.05;;;36.67;;
48623;SDS011;75490;45.802;16.114;2024-01-25T08:19:53;80.00;;;41.38;;
48623;SDS011;75490;45.802;16.114;2024-01-25T08:22:19;71.78;;;41.28;;
48623;SDS011;75490;45.802;16.114;2024-01-25T08:24:46;72.25;;;41.65;;
48623;SDS011;75490;45.802;16.114;2024-01-25T08:27:13;74.47;;;43.45;;
48623;SDS011;75490;45.802;16.114;2024-01-25T08:29:40;69.97;;;42.95;;
48623;SDS011;75490;45.802;16.114;2024-01-25T08:32:07;98.07;;;50.72;;
48623;SDS011;75490;45.802;16.114;2024-01-25T08:34:34;69.20;;;40.72;;
48623;SDS011;75490;45.802;16.114;2024-01-25T08:37:01;81.03;;;46.22;;
48623;SDS011;75490;45.802;16.114;2024-01-25T08:39:28;80.97;;;46.42;;
48623;SDS011;75490;45.802;16.114;2024-01-25T08:41:54;67.30;;;41.75;;
48623;SDS011;75490;45.802;16.114;2024-01-25T08:44:23;85.75;;;47.45;;
48623;SDS011;75490;45.802;16.114;2024-01-25T08:46:50;84.45;;;46.33;;
48623;SDS011;75490;45.802;16.114;2024-01-25T08:49:17;86.18;;;48.08;;
48623;SDS011;75490;45.802;16.114;2024-01-25T08:51:44;82.78;;;47.20;;
48623;SDS011;75490;45.802;16.114;2024-01-25T08:54:11;82.63;;;46.67;;
48623;SDS011;75490;45.802;16.114;2024-01-25T08:56:37;74.38;;;46.70;;
48623;SDS011;75490;45.802;16.114;2024-01-25T08:59:05;73.53;;;45.13;;
48623;SDS011;75490;45.802;16.114;2024-01-25T09:01:33;70.05;;;41.05;;
48623;SDS011;75490;45.802;16.114;2024-01-25T09:04:00;66.32;;;37.92;;
48623;SDS011;75490;45.802;16.114;2024-01-25T09:06:29;53.95;;;34.28;;
48623;SDS011;75490;45.802;16.114;2024-01-25T09:08:57;42.53;;;25.80;;
48623;SDS011;75490;45.802;16.114;2024-01-25T09:11:23;35.95;;;21.05;;
48623;SDS011;75490;45.802;16.114;2024-01-25T09:13:50;32.33;;;22.20;;
48623;SDS011;75490;45.802;16.114;2024-01-25T09:16:17;33.38;;;19.33;;
48623;SDS011;75490;45.802;16.114;2024-01-25T09:18:44;30.77;;;18.45;;
48623;SDS011;75490;45.802;16.114;2024-01-25T09:21:11;31.63;;;20.35;;
48623;SDS011;75490;45.802;16.114;2024-01-25T09:23:38;37.90;;;20.85;;
48623;SDS011;75490;45.802;16.114;2024-01-25T09:26:06;37.60;;;21.00;;
48623;SDS011;75490;45.802;16.114;2024-01-25T09:28:32;37.80;;;21.52;;
48623;SDS011;75490;45.802;16.114;2024-01-25T09:30:59;35.65;;;21.45;;
48623;SDS011;75490;45.802;16.114;2024-01-25T09:33:26;38.47;;;22.75;;
48623;SDS011;75490;45.802;16.114;2024-01-25T09:35:53;38.75;;;21.42;;
48623;SDS011;75490;45.802;16.114;2024-01-25T09:38:20;38.95;;;22.60;;
48623;SDS011;75490;45.802;16.114;2024-01-25T09:40:46;35.97;;;22.20;;
48623;SDS011;75490;45.802;16.114;2024-01-25T09:43:15;36.42;;;21.98;;
48623;SDS011;75490;45.802;16.114;2024-01-25T09:45:42;33.45;;;20.50;;
48623;SDS011;75490;45.802;16.114;2024-01-25T09:48:10;32.30;;;19.77;;
48623;SDS011;75490;45.802;16.114;2024-01-25T09:50:37;27.13;;;17.65;;
48623;SDS011;75490;45.802;16.114;2024-01-25T09:53:04;34.95;;;20.35;;
48623;SDS011;75490;45.802;16.114;2024-01-25T09:55:33;34.80;;;19.48;;
48623;SDS011;75490;45.802;16.114;2024-01-25T09:58:05;28.58;;;18.98;;
48623;SDS011;75490;45.802;16.114;2024-01-25T10:00:34;28.27;;;17.35;;
48623;SDS011;75490;45.802;16.114;2024-01-25T10:03:01;30.45;;;18.75;;
48623;SDS011;75490;45.802;16.114;2024-01-25T10:05:28;23.02;;;14.85;;
48623;SDS011;75490;45.802;16.114;2024-01-25T10:07:54;24.40;;;14.20;;
48623;SDS011;75490;45.802;16.114;2024-01-25T10:10:27;21.27;;;13.45;;
48623;SDS011;75490;45.802;16.114;2024-01-25T10:12:58;21.20;;;12.90;;
48623;SDS011;75490;45.802;16.114;2024-01-25T10:15:25;22.27;;;13.20;;
48623;SDS011;75490;45.802;16.114;2024-01-25T10:17:52;19.70;;;12.00;;
48623;SDS011;75490;45.802;16.114;2024-01-25T10:20:19;18.63;;;12.80;;
48623;SDS011;75490;45.802;16.114;2024-01-25T10:22:47;21.92;;;12.82;;
48623;SDS011;75490;45.802;16.114;2024-01-25T10:25:14;22.77;;;11.95;;
48623;SDS011;75490;45.802;16.114;2024-01-25T10:27:41;19.65;;;11.55;;
48623;SDS011;75490;45.802;16.114;2024-01-25T10:30:09;20.10;;;12.02;;
48623;SDS011;75490;45.802;16.114;2024-01-25T10:32:38;19.27;;;11.68;;
48623;SDS011;75490;45.802;16.114;2024-01-25T10:35:07;22.60;;;12.02;;
48623;SDS011;75490;45.802;16.114;2024-01-25T10:37:35;21.50;;;11.60;;
48623;SDS011;75490;45.802;16.114;2024-01-25T10:40:05;16.33;;;9.45;;
48623;SDS011;75490;45.802;16.114;2024-01-25T10:42:36;13.40;;;8.70;;
48623;SDS011;75490;45.802;16.114;2024-01-25T10:45:03;16.77;;;9.93;;
48623;SDS011;75490;45.802;16.114;2024-01-25T10:47:30;13.13;;;8.88;;
48623;SDS011;75490;45.802;16.114;2024-01-25T10:50:01;15.50;;;9.27;;
48623;SDS011;75490;45.802;16.114;2024-01-25T10:52:31;15.10;;;8.30;;
48623;SDS011;75490;45.802;16.114;2024-01-25T10:54:58;13.77;;;8.70;;
48623;SDS011;75490;45.802;16.114;2024-01-25T10:57:25;16.58;;;9.93;;
48623;SDS011;75490;45.802;16.114;2024-01-25T10:59:52;13.05;;;8.52;;
48623;SDS011;75490;45.802;16.114;2024-01-25T11:02:19;17.00;;;8.70;;
48623;SDS011;75490;45.802;16.114;2024-01-25T11:04:55;12.82;;;7.88;;
48623;SDS011;75490;45.802;16.114;2024-01-25T11:07:22;13.68;;;6.85;;
48623;SDS011;75490;45.802;16.114;2024-01-25T11:09:51;12.80;;;6.45;;
48623;SDS011;75490;45.802;16.114;2024-01-25T11:12:18;10.55;;;6.13;;
48623;SDS011;75490;45.802;16.114;2024-01-25T11:14:45;11.80;;;6.07;;
48623;SDS011;75490;45.802;16.114;2024-01-25T11:17:21;12.02;;;5.75;;
48623;SDS011;75490;45.802;16.114;2024-01-25T11:19:49;12.48;;;6.45;;
48623;SDS011;75490;45.802;16.114;2024-01-25T11:22:20;11.43;;;5.82;;
48623;SDS011;75490;45.802;16.114;2024-01-25T11:24:47;9.77;;;5.57;;
48623;SDS011;75490;45.802;16.114;2024-01-25T11:27:14;10.13;;;5.38;;
48623;SDS011;75490;45.802;16.114;2024-01-25T11:29:41;10.20;;;5.55;;
48623;SDS011;75490;45.802;16.114;2024-01-25T11:32:08;9.05;;;5.20;;
48623;SDS011;75490;45.802;16.114;2024-01-25T11:34:35;11.25;;;6.53;;
48623;SDS011;75490;45.802;16.114;2024-01-25T11:37:02;12.38;;;6.43;;
48623;SDS011;75490;45.802;16.114;2024-01-25T11:39:29;11.38;;;4.93;;
48623;SDS011;75490;45.802;16.114;2024-01-25T11:41:56;11.63;;;5.50;;
48623;SDS011;75490;45.802;16.114;2024-01-25T11:44:23;11.95;;;5.55;;
48623;SDS011;75490;45.802;16.114;2024-01-25T11:46:50;10.57;;;5.40;;
48623;SDS011;75490;45.802;16.114;2024-01-25T11:49:22;9.93;;;5.00;;
48623;SDS011;75490;45.802;16.114;2024-01-25T11:51:50;7.70;;;3.88;;
48623;SDS011;75490;45.802;16.114;2024-01-25T11:54:17;10.05;;;4.72;;
48623;SDS011;75490;45.802;16.114;2024-01-25T11:56:44;8.35;;;3.63;;
48623;SDS011;75490;45.802;16.114;2024-01-25T11:59:12;8.60;;;3.78;;
48623;SDS011;75490;45.802;16.114;2024-01-25T12:01:39;8.05;;;3.78;;
48623;SDS011;75490;45.802;16.114;2024-01-25T12:04:07;7.05;;;3.60;;
48623;SDS011;75490;45.802;16.114;2024-01-25T12:06:34;6.25;;;3.30;;
48623;SDS011;75490;45.802;16.114;2024-01-25T12:09:08;7.07;;;3.60;;
48623;SDS011;75490;45.802;16.114;2024-01-25T12:11:36;6.75;;;3.15;;
48623;SDS011;75490;45.802;16.114;2024-01-25T12:14:03;7.68;;;4.28;;
48623;SDS011;75490;45.802;16.114;2024-01-25T12:16:30;8.52;;;4.00;;
48623;SDS011;75490;45.802;16.114;2024-01-25T12:18:57;8.25;;;3.55;;
48623;SDS011;75490;45.802;16.114;2024-01-25T12:21:25;7.20;;;3.72;;
48623;SDS011;75490;45.802;16.114;2024-01-25T12:23:52;6.07;;;2.72;;
48623;SDS011;75490;45.802;16.114;2024-01-25T12:26:18;6.65;;;2.60;;
48623;SDS011;75490;45.802;16.114;2024-01-25T12:28:45;8.50;;;3.80;;
48623;SDS011;75490;45.802;16.114;2024-01-25T12:31:15;6.35;;;2.67;;
48623;SDS011;75490;45.802;16.114;2024-01-25T12:33:42;7.80;;;2.63;;
48623;SDS011;75490;45.802;16.114;2024-01-25T12:36:10;8.05;;;3.13;;
48623;SDS011;75490;45.802;16.114;2024-01-25T12:38:36;9.32;;;3.08;;
48623;SDS011;75490;45.802;16.114;2024-01-25T12:41:03;8.95;;;3.10;;
48623;SDS011;75490;45.802;16.114;2024-01-25T12:43:30;6.43;;;3.05;;
48623;SDS011;75490;45.802;16.114;2024-01-25T12:45:57;9.90;;;3.88;;
48623;SDS011;75490;45.802;16.114;2024-01-25T12:48:24;5.68;;;3.03;;
48623;SDS011;75490;45.802;16.114;2024-01-25T12:50:50;9.15;;;3.13;;
48623;SDS011;75490;45.802;16.114;2024-01-25T12:53:17;6.93;;;3.35;;
48623;SDS011;75490;45.802;16.114;2024-01-25T12:55:44;8.00;;;3.60;;
48623;SDS011;75490;45.802;16.114;2024-01-25T12:58:11;6.50;;;1.98;;
48623;SDS011;75490;45.802;16.114;2024-01-25T13:00:38;6.03;;;2.28;;
48623;SDS011;75490;45.802;16.114;2024-01-25T13:03:05;5.60;;;2.00;;
48623;SDS011;75490;45.802;16.114;2024-01-25T13:05:32;4.85;;;2.20;;
48623;SDS011;75490;45.802;16.114;2024-01-25T13:08:01;6.43;;;2.13;;
48623;SDS011;75490;45.802;16.114;2024-01-25T13:10:29;6.38;;;2.45;;
48623;SDS011;75490;45.802;16.114;2024-01-25T13:12:56;5.03;;;2.33;;
48623;SDS011;75490;45.802;16.114;2024-01-25T13:15:23;5.25;;;2.40;;
48623;SDS011;75490;45.802;16.114;2024-01-25T13:17:50;5.45;;;2.10;;
48623;SDS011;75490;45.802;16.114;2024-01-25T13:20:17;4.10;;;1.90;;
48623;SDS011;75490;45.802;16.114;2024-01-25T13:22:44;5.03;;;1.85;;
48623;SDS011;75490;45.802;16.114;2024-01-25T13:25:10;5.72;;;2.00;;
48623;SDS011;75490;45.802;16.114;2024-01-25T13:27:38;5.28;;;2.40;;
48623;SDS011;75490;45.802;16.114;2024-01-25T13:30:05;6.38;;;2.75;;
48623;SDS011;75490;45.802;16.114;2024-01-25T13:32:32;5.30;;;1.88;;
48623;SDS011;75490;45.802;16.114;2024-01-25T13:34:59;4.65;;;2.13;;
48623;SDS011;75490;45.802;16.114;2024-01-25T13:37:26;7.03;;;2.30;;
48623;SDS011;75490;45.802;16.114;2024-01-25T13:39:53;4.95;;;1.90;;
48623;SDS011;75490;45.802;16.114;2024-01-25T13:42:19;4.47;;;2.10;;
48623;SDS011;75490;45.802;16.114;2024-01-25T13:44:47;5.78;;;2.38;;
48623;SDS011;75490;45.802;16.114;2024-01-25T13:47:14;6.68;;;2.50;;
48623;SDS011;75490;45.802;16.114;2024-01-25T13:49:40;6.55;;;2.55;;
48623;SDS011;75490;45.802;16.114;2024-01-25T13:52:07;6.85;;;3.40;;
48623;SDS011;75490;45.802;16.114;2024-01-25T13:54:44;6.47;;;2.67;;
48623;SDS011;75490;45.802;16.114;2024-01-25T13:57:11;6.35;;;3.08;;
48623;SDS011;75490;45.802;16.114;2024-01-25T13:59:37;9.23;;;4.57;;
48623;SDS011;75490;45.802;16.114;2024-01-25T14:02:04;11.43;;;6.63;;
48623;SDS011;75490;45.802;16.114;2024-01-25T14:04:31;12.68;;;6.43;;
48623;SDS011;75490;45.802;16.114;2024-01-25T14:06:58;8.82;;;5.45;;
48623;SDS011;75490;45.802;16.114;2024-01-25T14:09:27;6.55;;;3.55;;
48623;SDS011;75490;45.802;16.114;2024-01-25T14:11:56;5.03;;;2.20;;
48623;SDS011;75490;45.802;16.114;2024-01-25T14:14:23;11.43;;;4.07;;